Terminal Aerodrome Forecast
Issued by NWS

Home | Current Version | Previous Version | Text Only | Print | Product List | Glossary On
Versions: 1 2 3 4 5 6 7 8 9 10 11 12 13 14 15 16 17 18 19 20 21 22 23 24 25 26 27 28 29 30 31
953
FTUS41 KBOX 131722
TAFHYA
TAF
KHYA 131722Z 1318/1418 31015G26KT P6SM BKN045
     FM132200 30017G32KT P6SM SCT090
     FM140200 30021G37KT P6SM VCSH SCT250
     FM141300 31019G29KT P6SM VCSH BKN250
     FM141600 31017G26KT P6SM SCT250=

USA.gov is the U.S. government's official web portal to all federal, state and local government web resources and services.